SAZM/MDD METAR and TAF weather

Enter ICAO airport designator
Station Type Date Time Source
SAZM METAR 2019/10/15 21:00 UTC NOAA

SAZM 152100Z 08007KT 9999 FEW015 BKN030 OVC070 10/06 Q1032


Station Type Date Time Source
SAZM Decoded METAR 2019/10/15 21:00 UTC NOAA

Mar Del Plata Aerodrome, Argentina (SAZM) 37-56S 057-35W 21M
Oct 15, 2019 - 05:00 PM EDT / 2019.10.15 2100 UTC
Wind: from the E (080 degrees) at 8 MPH (7 KT):0
Visibility: greater than 7 mile(s):0
Sky conditions: overcast
Temperature: 50 F (10 C)
Dew Point: 42 F (6 C)
Relative Humidity: 76%
Pressure (altimeter): 30.47 in. Hg (1032 hPa)
ob: SAZM 152100Z 08007KT 9999 FEW015 BKN030 OVC070 10/06 Q1032
cycle: 21

Station Type Date Time Source
SAZM TAF 2019/10/15 18:21 UTC NOAA

TAF TAF SAZM 151700Z 1518/1618 11010KT 9999 BKN020 OVC070 TX13/1617Z TN06/1610Z
BECMG 1523/1601 07010KT 6000 BR BKN010
BECMG 1610/1612 9999 BKN025

Example: see airport list